LFBO 301030Z AUTO 12011KT 100V160 7000 NSC 25/15 Q1015 NOSIG

ElémentsDécodage
LFBO Station météo située sur l'aérodrome de TOULOUSE Blagnac
301030Z émis le 30 du mois à 10h30 UTC
AUTO Bulletin édité par un automate
12011KT vent du 120°, 11 noeuds
100V160 vent de direction variable entre 100° et 160°
7000 visibilité horizontale de 7000 mètres
NSC pas de nuage significatif (pas de nuage <5000ft, pas de CB)
25/15 température 25°C, point de rosée 15°C
 soit une humidité relative de 54%
Q1015 la pression au niveau de la mer (QNH) est de 1015 hPa
NOSIG Pas de changement significatif prévu au cours des deux heures suivant l'heure de l'observation